Portada
METAR-TAF:

METAR-TAF

Aeropuertos :

Aeropuerto de Comiso

Comiso, Italia

latitud: 36-59-30N, longitud: 14-36-25E, altitud: 190 m

Observación

El informe se hizo hace 30 minutos, a las 08:20 UTC
Viento 8 kt del este, variando entre este-noreste y sur-sureste
Temperatura 15°C
Humedad 67%
Presión 1024 hPa
Visibilidad 10 km o más

METAR: LICB 070820Z AUTO 10008KT 060V150 9999 NCD 15/09 Q1024

Hora: 09:50 (08:50 UTC)

Pronóstico

El informe se hizo hace 50 minutos, a las 08:00 UTC
Pronóstico válido del 07 a las 09 UTC al 07 a las 18 UTC
Viento 5 kt con dirección variable
Visibilidad 10 km o más
Nubes dispersas a una altura de 4000 ft

TAF: LICB 070800Z 0709/0718 VRB05KT 9999 SCT040

Observaciones y pronósticos meteorológicos de más de 4000 aeropuertos (mensajes METAR y TAF).

Los puntos amarillos y rojos representan las estaciones disponibles.

Ponga el ratón en el punto deseado para ver el nombre de la estación.

Haga clic para ver las observaciones y los pronósticos meteorológicos.

Para cambiar el mapa : haga clic en los botones verdes con una cruz de color negro para hacer un zoom, en el botón verde con un guión para alejar o en las flechas verdes para mapas adyacentes.


METAR-TAF: